Conakry, Guinea

12:16 PM GMT on September 22, 2014 (GMT +0000)
Gbessia | Change Station
CLOSE
Current Station
Airport
Location: Conakry,
Elevation: 85 ft
Nearby Weather Stations

Elev 85 ft 9.58 °N, 13.61 °W | Updated 16 minutes ago

Scattered Clouds
Scattered Clouds
84 °F
Feels Like 92 °F
N
2
Wind Variable Wind from Variable

Today
High -- | Low -- °F
--% Chance of Precip.
Yesterday
High -- | Low -- °F
Precip. -- in
6:43 AM 6:50 PM
Waning Crescent, 3% visible
Pressure 29.89 in
Visibility 6.2 miles
Clouds Mostly Cloudy 1500 ft
Scattered Clouds 11000 ft
Heat Index 92 °F
Dew Point 75 °F
Humidity 74%
Rainfall 0.00 in
Snow Depth Not available.
UV 9 out of 12
Pollen Not available.
Air Quality Not available.
Flu Activity Not available.
METAR GUCY 221200Z VRB02KT 9999 BKN015 SCT110 29/24 Q1012 NOSIG

More Conditions Fewer Conditions

Pressure 29.89 in
Visibility 6.2 miles
Clouds Mostly Cloudy 1500 ft
Scattered Clouds 11000 ft
Heat Index 92 °F
Dew Point 75 °F
Humidity 74%
Rainfall 0.00 in
Snow Depth Not available.
UV 9 out of 12
Pollen Not available.
Air Quality Not available.
Flu Activity Not available.
METAR GUCY 221200Z VRB02KT 9999 BKN015 SCT110 29/24 Q1012 NOSIG

More Conditions Fewer Conditions

10-Day Weather Forecast

Almanac

Astronomy

Sep. 22, 2014 Rise Set
Actual Time 6:43 AM GMT 6:50 PM GMT
Civil Twilight 6:22 AM GMT 7:11 PM GMT
Nautical Twilight 5:58 AM GMT 7:35 PM GMT
Astronomical Twilight 5:34 AM GMT 8:00 PM GMT
Moon 5:14 AM GMT 5:42 PM GMT
Length of Visible Light 12h 48m
Length of Day
12h 06m
Tomorrow will be 0m 32s shorter.
Waning Crescent, 3% of the Moon is Illuminated
Today
Waning Crescent
Sep 24
New
Oct 1
First Quarter
Oct 8
Full
Oct 15
Last Quarter

Yesterday's Extremes

Country Highs Country Lows

Community

WunderPhotos

Upload Photos

1,755,417 photos uploaded!

WunderBlogs® & News

Nearby

Snow Depth

Not available.

Earthquake Activity

City Distance Mag. Time & Date
No recent earthquake activity has been reported nearby.
Minimum magnitude displayed is 2.5.

Coastal Water Temperatures

Place Temperature
No Stations Reporting

Nearby Weather Stations